الصفحة الرئيسية
METAR-TAF:

METAR-TAF

مطار :

Chandler Municipal Airport

Chandler, أريزونا, الولايات المتحدة

دائرة عرض: 33-16-09N, خط طول: 111-48-40W, ارتفاع: 379 متر

مراقبة الطقس الحالي

تاريخ ووقت الإصدار 4ساعات و 0 دقيقة قبل الساعة 03:47UTC
ريح 6 عقدة من الجنوب الغربي
درجة الحرارة 21°درجة مئوية
الرطوبة 25%
ضغط 1013 hPa
الرؤية: 16.1 كم
غيوم قليلة على ارتفاع 9000 قدم
غيوم مفككة على ارتفاع 22000 قدم

METAR: KCHD 210347Z 23006KT 10SM FEW090 BKN220 21/00 A2991 RMK LAST

زمن: 00:47 (07:47 UTC)


TAF: مفقودة

أرصاد الطقس والتوقعات من أكثر من 4000 مطار (تقارير الطقس للمطار METAR والتنبؤ بالطقس بالمطارTAF).

المحطات المتاحة هي النقط الصفراء والحمراء على الخريطة.

حرك المؤشر فوق النقطة لمعرفة اسم المحطة.

ثم انقر لمعرفة أرصاد وتوقعات الطقس.

لتغيير الخارطة: اضغط على الأزرار الخضراء مع رمز الصليب الأسود للتكبير. على الزر الأخضر مع شرطة للتصغير، أو على الأسهم الخضراء للخرائط المجاورة.


METAR-TAF: